Flight Track Log - Related Links

Times and Time Zones

All times are in EST time to prevent confusion due to time zone crossing. See the JZA8753 flight status page for this flight to view local times or setup timezone preferences in your user account.

Time Position Orientation Groundspeed Altitude Reporting Facility
EST Latitude Longitude Course Direction KTS MPH feet Rate Location/Type
Mon 07:13:13 PM 45.4500 -73.7167 270° West 90 104 100  Level Montreal Center
Mon 07:14:13 PM 45.4500 -73.7500 270° West 110 127 600 1,100 Climbing Montreal Center
Mon 07:15:13 PM 45.4667 -73.7667 325° Northwest 120 138 2,300 1,400 Climbing Montreal Center
Mon 07:16:13 PM 45.5000 -73.8167 314° West 130 150 3,400 1,200 Climbing Montreal Center
Mon 07:17:13 PM 45.5000 -73.8667 270° West 150 173 4,700 1,250 Climbing Montreal Center
Mon 07:18:13 PM 45.5333 -73.9167 314° West 150 173 5,900 1,100 Climbing Montreal Center
Mon 07:19:13 PM 45.5500 -73.9833 290° West 170 196 6,900 950 Climbing Montreal Center
Mon 07:20:13 PM 45.6000 -74.0500 317° Northwest 180 207 7,800 950 Climbing Montreal Center
Mon 07:21:13 PM 45.6167 -74.1000 295° West 180 207 8,800 1,000 Climbing Montreal Center
Mon 07:22:13 PM 45.6500 -74.1667 306° West 190 219 9,800 1,100 Climbing Montreal Center
Mon 07:23:13 PM 45.6833 -74.2167 314° West 190 219 11,000 1,050 Climbing Montreal Center
Mon 07:24:13 PM 45.7167 -74.2667 314° West 190 219 11,900 950 Climbing Montreal Center
Mon 07:25:13 PM 45.7667 -74.3333 317° Northwest 190 219 12,900 900 Climbing Montreal Center
Mon 07:26:13 PM 45.8000 -74.3833 314° West 200 230 13,700 900 Climbing Montreal Center
Mon 07:27:13 PM 45.8333 -74.4333 314° West 200 230 14,700 950 Climbing Montreal Center
Mon 07:28:13 PM 45.8833 -74.5000 317° Northwest 200 230 15,600 650 Climbing Montreal Center
Mon 07:29:13 PM 45.9167 -74.5500 314° West 210 242 16,000 200 Climbing Montreal Center
Mon 07:30:13 PM 45.9667 -74.6167 317° Northwest 220 253 16,000  Level Montreal Center
Mon 07:31:13 PM 46.0167 -74.6833 317° Northwest 230 265 16,000  Level Montreal Center
Mon 07:32:13 PM 46.0500 -74.7333 314° West 230 265 16,000  Level Montreal Center
Mon 07:33:13 PM 46.1000 -74.8000 317° Northwest 230 265 16,000  Level Montreal Center
Mon 07:34:13 PM 46.1500 -74.8833 311° West 230 265 16,000  Level Montreal Center
Mon 07:35:13 PM 46.1833 -74.9333 314° West 230 265 16,000 -50 Level Montreal Center
Mon 07:36:13 PM 46.2500 -75.0000 325° Northwest 230 265 15,900  Descending Montreal Center
Mon 07:37:13 PM 46.3000 -75.0667 317° Northwest 230 265 16,000 50 Climbing Montreal Center
Mon 07:38:13 PM 46.3500 -75.1333 317° Northwest 240 276 16,000  Level Montreal Center
Mon 07:39:13 PM 46.4000 -75.1833 325° Northwest 230 265 16,000  Level Montreal Center
Mon 07:40:13 PM 46.4333 -75.2667 300° West 230 265 16,000  Level Montreal Center
Mon 07:41:13 PM 46.4833 -75.3333 317° Northwest 230 265 16,000  Level Montreal Center
Mon 07:42:13 PM 46.5333 -75.4000 317° Northwest 230 265 16,000  Level Montreal Center
Mon 07:43:13 PM 46.5833 -75.4500 326° Northwest 230 265 16,000  Level Montreal Center
Mon 07:44:13 PM 46.6167 -75.5333 300° West 230 265 16,000  Level Montreal Center
Mon 07:45:13 PM 46.6667 -75.6000 318° Northwest 230 265 16,000  Level Montreal Center
Mon 07:46:13 PM 46.7167 -75.6500 326° Northwest 230 265 16,000  Level Montreal Center
Mon 07:47:13 PM 46.7667 -75.7167 318° Northwest 230 265 16,000 50 Level Montreal Center
Mon 07:48:13 PM 46.8000 -75.8000 300° West 230 265 16,100 150 Climbing Montreal Center
Mon 07:49:13 PM 46.8500 -75.8667 318° Northwest 230 265 16,300 100 Climbing Montreal Center
Mon 07:50:13 PM 46.9000 -75.9167 326° Northwest 230 265 16,300  Level Montreal Center
Mon 07:51:13 PM 46.9333 -76.0000 300° West 230 265 16,300  Level Montreal Center
Mon 07:52:13 PM 46.9833 -76.0667 318° Northwest 230 265 16,300  Level Montreal Center
Mon 07:53:13 PM 47.0333 -76.1167 326° Northwest 230 265 16,300  Level Montreal Center
Mon 07:54:13 PM 47.0833 -76.1833 318° Northwest 230 265 16,300  Level Montreal Center
Mon 07:55:13 PM 47.1167 -76.2667 300° West 220 253 16,300  Level Montreal Center
Mon 07:56:13 PM 47.1667 -76.3167 326° Northwest 220 253 16,300  Level Montreal Center
Mon 07:57:13 PM 47.2000 -76.3833 306° West 220 253 16,300 -150 Level Montreal Center
Mon 07:58:13 PM 47.2500 -76.4333 326° Northwest 220 253 16,000 -150 Descending Montreal Center
Mon 07:59:13 PM 47.2833 -76.5167 301° West 220 253 16,000  Level Montreal Center
Mon 08:00:13 PM 47.3167 -76.5833 306° West 210 242 16,000  Level Montreal Center
Mon 08:01:13 PM 47.3500 -76.6667 301° West 210 242 16,000  Level Montreal Center
Mon 08:02:13 PM 47.3833 -76.7333 306° West 210 242 16,000  Level Montreal Center
Mon 08:03:13 PM 47.4333 -76.8167 312° West 220 253 16,000 -300 Level Montreal Center
Mon 08:04:13 PM 47.4667 -76.8833 307° West 230 265 15,400 -850 Descending Montreal Center
Mon 08:05:13 PM 47.5000 -76.9667 301° West 240 276 14,300 -1,100 Descending Montreal Center
Mon 08:06:13 PM 47.5500 -77.0333 318° Northwest 260 299 13,200 -1,100 Descending Montreal Center
Mon 08:10:00 PM 47.6083 -77.1615 304° West  Level FlightAware Approximate
Mon 08:17:00 PM 47.8399 -77.6630 307° West  Level FlightAware Approximate
Mon 08:18:00 PM 47.8795 -77.7231 341° North  Level FlightAware Approximate
Mon 08:19:00 PM 47.9362 -77.7411 345° North  Level FlightAware Approximate
Mon 08:20:00 PM 47.9927 -77.7637 345° North  Level FlightAware Approximate
Mon 08:21:00 PM 48.0500 -77.7667 North  Level FlightAware Approximate
Mon 08:22:00 PM 48.0533 -77.7828 North  Level Estimated
Mon 08:23:00 PM 48.0533 -77.7828 North  Level Estimated
Mon 08:24:00 PM 48.0533 -77.7828 North  Level Estimated
Mon 08:25:00 PM 48.0533 -77.7828 North  Level Estimated

Login

Don't have an account? Register now (free) for customized features, flight alerts, and more!